Time;durP1;ratioP1;P1;durP2;ratioP2;P2;SDS_P1;SDS_P2;PMS_P1;PMS_P2;Temp;Humidity;BMP_temperature;BMP_pressure;BME280_temperature;BME280_humidity;BME280_pressure;Samples;Min_cycle;Max_cycle;Signal;HPM_P1;HPM_P2
2022/03/23 00:01:46;;;;;;;90.90;37.00;;;;;;;;;;5059353;28;20286;-49
2022/03/23 00:04:13;;;;;;;86.50;39.17;;;;;;;;;;5077138;28;20235;-51
2022/03/23 00:06:40;;;;;;;81.97;36.80;;;;;;;;;;5076465;28;20307;-48
2022/03/23 00:09:08;;;;;;;84.33;38.60;;;;;;;;;;5077035;28;20282;-49
2022/03/23 00:11:35;;;;;;;86.07;37.73;;;;;;;;;;5077349;28;20207;-51
2022/03/23 00:14:05;;;;;;;84.63;36.97;;;;;;;;;;5026125;28;20282;-49
2022/03/23 00:16:36;;;;;;;79.37;37.20;;;;;;;;;;5077007;28;20682;-49
2022/03/23 00:19:07;;;;;;;117.93;51.40;;;;;;;;;;5077258;28;20549;-50
2022/03/23 00:21:35;;;;;;;137.53;56.90;;;;;;;;;;5077232;28;20270;-49
2022/03/23 00:24:03;;;;;;;104.17;43.93;;;;;;;;;;5077298;28;20596;-49
2022/03/23 00:26:30;;;;;;;113.70;43.90;;;;;;;;;;5059540;28;20579;-49
2022/03/23 00:28:58;;;;;;;82.43;35.00;;;;;;;;;;5076506;28;20282;-49
2022/03/23 00:31:26;;;;;;;66.23;32.07;;;;;;;;;;5059369;28;20284;-49
2022/03/23 00:33:56;;;;;;;71.70;33.70;;;;;;;;;;5076533;28;20203;-49
2022/03/23 00:36:24;;;;;;;78.53;36.10;;;;;;;;;;5076506;28;20294;-49
2022/03/23 00:38:53;;;;;;;79.43;38.23;;;;;;;;;;5065492;28;20210;-50
2022/03/23 00:41:21;;;;;;;55.40;29.03;;;;;;;;;;5056460;28;20665;-49
2022/03/23 00:43:48;;;;;;;61.60;29.30;;;;;;;;;;5056305;28;20238;-51
2022/03/23 00:46:16;;;;;;;82.47;35.77;;;;;;;;;;5056299;28;20642;-49
2022/03/23 00:48:43;;;;;;;142.60;43.77;;;;;;;;;;5056338;28;20208;-49
2022/03/23 00:51:10;;;;;;;79.83;34.80;;;;;;;;;;5056200;28;20548;-49
2022/03/23 00:53:37;;;;;;;132.37;44.33;;;;;;;;;;5056244;28;20231;-49
2022/03/23 00:56:04;;;;;;;108.40;41.20;;;;;;;;;;5056299;28;20216;-49
2022/03/23 00:58:32;;;;;;;79.77;33.30;;;;;;;;;;5056243;28;20307;-50
2022/03/23 01:01:00;;;;;;;159.13;52.67;;;;;;;;;;5059609;28;20212;-50
2022/03/23 01:03:28;;;;;;;474.97;198.90;;;;;;;;;;5056530;28;20227;-50
2022/03/23 01:05:56;;;;;;;71.37;30.87;;;;;;;;;;5058431;28;20303;-48
2022/03/23 01:08:22;;;;;;;73.57;32.40;;;;;;;;;;5041050;28;20239;-49
2022/03/23 01:10:51;;;;;;;56.80;27.57;;;;;;;;;;5056652;28;20254;-49
2022/03/23 01:13:18;;;;;;;75.77;34.70;;;;;;;;;;5056607;28;20569;-49
2022/03/23 01:15:45;;;;;;;140.63;51.50;;;;;;;;;;5056209;28;20207;-48
2022/03/23 01:18:13;;;;;;;125.67;48.63;;;;;;;;;;5055107;28;20212;-49
2022/03/23 01:20:40;;;;;;;116.50;44.63;;;;;;;;;;5043413;28;20647;-49
2022/03/23 01:23:07;;;;;;;68.50;33.37;;;;;;;;;;5058043;28;20199;-49
2022/03/23 01:25:34;;;;;;;84.17;36.07;;;;;;;;;;5058036;28;20214;-49
2022/03/23 01:28:03;;;;;;;67.43;31.87;;;;;;;;;;5058283;28;20282;-49
2022/03/23 01:30:30;;;;;;;179.10;58.47;;;;;;;;;;5058090;28;20219;-49
2022/03/23 01:32:57;;;;;;;131.37;46.30;;;;;;;;;;5075507;28;20204;-49
2022/03/23 01:35:27;;;;;;;138.03;47.60;;;;;;;;;;5058402;28;20360;-50
2022/03/23 01:37:54;;;;;;;154.43;51.70;;;;;;;;;;5058170;28;20523;-49
2022/03/23 01:40:22;;;;;;;117.17;45.70;;;;;;;;;;5058082;28;20207;-49
2022/03/23 01:42:49;;;;;;;108.00;42.07;;;;;;;;;;5058012;28;20230;-49
2022/03/23 01:45:17;;;;;;;170.03;62.50;;;;;;;;;;5057831;28;20203;-49
2022/03/23 01:47:45;;;;;;;185.97;67.33;;;;;;;;;;5075748;28;20199;-49
2022/03/23 01:50:12;;;;;;;157.83;50.97;;;;;;;;;;5075183;28;20310;-49
2022/03/23 01:52:40;;;;;;;250.93;68.67;;;;;;;;;;5058500;28;20272;-49
2022/03/23 01:55:10;;;;;;;307.07;83.83;;;;;;;;;;5075165;28;20207;-49
2022/03/23 01:57:39;;;;;;;310.93;95.50;;;;;;;;;;5057766;28;20282;-49
2022/03/23 02:00:07;;;;;;;258.57;81.67;;;;;;;;;;5057577;28;20290;-48
2022/03/23 02:02:40;;;;;;;164.23;54.07;;;;;;;;;;5075237;28;20281;-49
2022/03/23 02:05:12;;;;;;;354.13;103.27;;;;;;;;;;5057601;28;20235;-51
2022/03/23 02:07:46;;;;;;;881.10;322.27;;;;;;;;;;5057945;28;20286;-49
2022/03/23 02:10:14;;;;;;;715.93;204.07;;;;;;;;;;5075277;28;20291;-49
2022/03/23 02:12:58;;;;;;;340.27;93.70;;;;;;;;;;5030859;28;20288;-50
2022/03/23 02:15:26;;;;;;;285.13;84.70;;;;;;;;;;5037746;28;20290;-49
2022/03/23 02:17:54;;;;;;;271.57;77.20;;;;;;;;;;5054783;28;20203;-49
2022/03/23 02:20:21;;;;;;;307.33;87.33;;;;;;;;;;5037998;28;20290;-49
2022/03/23 02:22:49;;;;;;;258.23;78.07;;;;;;;;;;5037504;28;20200;-50
2022/03/23 02:25:21;;;;;;;192.23;64.90;;;;;;;;;;5037365;28;20273;-49
2022/03/23 02:27:50;;;;;;;132.50;57.37;;;;;;;;;;5054838;28;20208;-49
2022/03/23 02:30:17;;;;;;;134.77;54.70;;;;;;;;;;5054745;28;20258;-50
2022/03/23 02:32:45;;;;;;;111.43;54.63;;;;;;;;;;5055313;28;20211;-49
2022/03/23 02:35:12;;;;;;;118.53;56.33;;;;;;;;;;5054755;28;20291;-48
2022/03/23 02:37:40;;;;;;;121.23;57.70;;;;;;;;;;5054725;28;20200;-49
2022/03/23 02:40:08;;;;;;;146.23;71.67;;;;;;;;;;5037155;28;20203;-49
2022/03/23 02:42:37;;;;;;;142.07;70.63;;;;;;;;;;5054957;28;20324;-49
2022/03/23 02:45:10;;;;;;;137.13;64.50;;;;;;;;;;5054831;28;20291;-49
2022/03/23 02:47:38;;;;;;;113.53;53.30;;;;;;;;;;5054888;28;20250;-48
2022/03/23 02:50:06;;;;;;;104.27;50.87;;;;;;;;;;5054325;28;20223;-48
2022/03/23 02:52:34;;;;;;;107.80;51.90;;;;;;;;;;5054489;28;20686;-49
2022/03/23 03:03:40;;;;;;;126.77;50.83;;;;;;;;;;5054562;28;20238;-49
2022/03/23 03:06:07;;;;;;;91.17;43.60;;;;;;;;;;5054257;28;20204;-49
2022/03/23 03:08:47;;;;;;;81.13;39.30;;;;;;;;;;5054462;28;20224;-50
2022/03/23 03:11:18;;;;;;;88.63;40.43;;;;;;;;;;5054077;28;20219;-49
2022/03/23 03:13:48;;;;;;;74.07;34.67;;;;;;;;;;5055059;28;20200;-50
2022/03/23 03:16:16;;;;;;;67.77;36.17;;;;;;;;;;5054449;28;20220;-49
2022/03/23 03:18:44;;;;;;;95.53;45.03;;;;;;;;;;5054326;28;20231;-50
2022/03/23 03:21:11;;;;;;;98.87;43.47;;;;;;;;;;5054280;28;20200;-49
2022/03/23 03:23:43;;;;;;;97.07;44.93;;;;;;;;;;5053868;28;20315;-52
2022/03/23 03:26:11;;;;;;;143.03;57.77;;;;;;;;;;5054498;28;20214;-49
2022/03/23 03:28:40;;;;;;;133.20;54.77;;;;;;;;;;5053970;28;20224;-52
2022/03/23 03:31:11;;;;;;;223.47;81.90;;;;;;;;;;5053932;28;20766;-49
2022/03/23 03:33:39;;;;;;;355.57;108.23;;;;;;;;;;5054139;28;20234;-49
2022/03/23 03:36:06;;;;;;;324.27;93.93;;;;;;;;;;5054187;28;20597;-49
2022/03/23 03:38:34;;;;;;;194.73;72.17;;;;;;;;;;5054035;28;20287;-49
2022/03/23 03:41:02;;;;;;;109.70;51.33;;;;;;;;;;5036729;28;20290;-50
2022/03/23 03:43:30;;;;;;;139.33;59.10;;;;;;;;;;5057393;28;20200;-50
2022/03/23 03:46:01;;;;;;;138.43;60.20;;;;;;;;;;5058008;28;20199;-50
2022/03/23 03:48:28;;;;;;;117.43;53.63;;;;;;;;;;5057453;28;20508;-51
2022/03/23 03:50:56;;;;;;;118.17;56.80;;;;;;;;;;5057173;28;20540;-50
2022/03/23 03:53:23;;;;;;;109.90;51.87;;;;;;;;;;5057324;28;20287;-50
2022/03/23 03:55:58;;;;;;;194.70;79.00;;;;;;;;;;5057590;28;20188;-49
2022/03/23 03:58:25;;;;;;;138.97;60.13;;;;;;;;;;5056922;28;20234;-49
2022/03/23 04:00:53;;;;;;;109.70;52.27;;;;;;;;;;5056989;28;20204;-49
2022/03/23 04:03:20;;;;;;;102.83;51.00;;;;;;;;;;5056892;28;20550;-49
2022/03/23 04:05:48;;;;;;;110.13;55.93;;;;;;;;;;5056772;28;20713;-49
2022/03/23 04:08:15;;;;;;;120.33;56.17;;;;;;;;;;5056777;28;20646;-50
2022/03/23 04:10:42;;;;;;;103.33;48.27;;;;;;;;;;5056931;28;20228;-49
2022/03/23 04:13:09;;;;;;;90.10;45.90;;;;;;;;;;5039347;28;20291;-50
2022/03/23 04:15:37;;;;;;;93.93;48.50;;;;;;;;;;5056783;28;20248;-49
2022/03/23 04:18:05;;;;;;;98.50;47.63;;;;;;;;;;5056870;28;20207;-50
2022/03/23 04:20:32;;;;;;;115.93;51.63;;;;;;;;;;5056879;28;20366;-49
2022/03/23 04:22:59;;;;;;;224.03;69.97;;;;;;;;;;5056501;28;20703;-54
2022/03/23 04:25:27;;;;;;;333.80;89.80;;;;;;;;;;5056410;28;20298;-50
2022/03/23 04:27:56;;;;;;;371.63;93.83;;;;;;;;;;5056366;28;20607;-53
2022/03/23 04:30:26;;;;;;;236.90;71.67;;;;;;;;;;5056275;28;20722;-53
2022/03/23 04:32:54;;;;;;;251.97;73.77;;;;;;;;;;5056364;28;20188;-52
2022/03/23 04:35:21;;;;;;;463.97;143.57;;;;;;;;;;5056573;28;20706;-51
2022/03/23 04:37:49;;;;;;;846.33;359.57;;;;;;;;;;5056167;28;20210;-51
2022/03/23 04:40:16;;;;;;;712.53;222.20;;;;;;;;;;5056369;28;20343;-51
2022/03/23 04:42:45;;;;;;;545.40;145.53;;;;;;;;;;5056285;28;20727;-49
2022/03/23 04:45:13;;;;;;;484.17;128.40;;;;;;;;;;5056159;28;20333;-50
2022/03/23 04:47:41;;;;;;;377.13;111.03;;;;;;;;;;5055976;28;20196;-52
2022/03/23 04:50:10;;;;;;;243.43;87.43;;;;;;;;;;5055901;28;20299;-51
2022/03/23 04:52:39;;;;;;;194.23;74.73;;;;;;;;;;5040909;28;20238;-51
2022/03/23 04:55:07;;;;;;;180.80;74.37;;;;;;;;;;5075400;28;20263;-49
2022/03/23 04:57:35;;;;;;;516.70;194.07;;;;;;;;;;5075158;28;20318;-50
2022/03/23 05:00:03;;;;;;;331.13;113.70;;;;;;;;;;5075071;28;20247;-49
2022/03/23 05:02:30;;;;;;;214.43;80.23;;;;;;;;;;5075079;28;20219;-51
2022/03/23 05:04:58;;;;;;;126.03;64.73;;;;;;;;;;5074766;28;20645;-51
2022/03/23 05:07:25;;;;;;;146.63;64.87;;;;;;;;;;5074243;28;20227;-49
2022/03/23 05:09:52;;;;;;;142.87;60.87;;;;;;;;;;5057680;28;20253;-48
2022/03/23 05:12:19;;;;;;;141.13;61.13;;;;;;;;;;5074711;28;20306;-49
2022/03/23 05:14:46;;;;;;;140.20;61.63;;;;;;;;;;5075418;28;20322;-48
2022/03/23 05:17:13;;;;;;;108.47;52.30;;;;;;;;;;5074443;28;20224;-51
2022/03/23 05:19:41;;;;;;;320.97;127.03;;;;;;;;;;5075342;28;20306;-52
2022/03/23 05:22:08;;;;;;;133.30;62.30;;;;;;;;;;5056536;28;20230;-51
2022/03/23 05:24:35;;;;;;;280.47;87.63;;;;;;;;;;5074998;28;20601;-50
2022/03/23 05:27:03;;;;;;;245.77;76.27;;;;;;;;;;5074716;28;20306;-49
2022/03/23 05:29:30;;;;;;;171.20;65.63;;;;;;;;;;5074907;28;20560;-50
2022/03/23 05:31:57;;;;;;;81.37;44.77;;;;;;;;;;5074205;28;20321;-50
2022/03/23 05:34:25;;;;;;;89.30;46.80;;;;;;;;;;5074659;28;20223;-50
2022/03/23 05:36:53;;;;;;;88.40;45.50;;;;;;;;;;5073744;28;20232;-52
2022/03/23 05:39:20;;;;;;;86.40;47.23;;;;;;;;;;5074719;28;20227;-53
2022/03/23 05:41:48;;;;;;;275.13;113.83;;;;;;;;;;5073593;28;20231;-49
2022/03/23 05:44:15;;;;;;;465.77;129.93;;;;;;;;;;5057099;28;20666;-53
2022/03/23 05:46:42;;;;;;;184.43;66.60;;;;;;;;;;5069378;28;20226;-52
2022/03/23 05:49:10;;;;;;;83.13;43.57;;;;;;;;;;5054349;28;20238;-49
2022/03/23 05:51:37;;;;;;;85.50;46.27;;;;;;;;;;5052774;28;20648;-49
2022/03/23 05:54:04;;;;;;;117.70;58.13;;;;;;;;;;5053783;28;20231;-49
2022/03/23 05:56:33;;;;;;;103.20;55.13;;;;;;;;;;5054620;28;20236;-50
2022/03/23 05:59:00;;;;;;;65.87;39.33;;;;;;;;;;5054288;28;20251;-51
2022/03/23 06:01:27;;;;;;;61.57;38.00;;;;;;;;;;5054373;28;20251;-49
2022/03/23 06:03:55;;;;;;;57.10;34.87;;;;;;;;;;5054189;28;20252;-50
2022/03/23 06:06:22;;;;;;;65.83;37.17;;;;;;;;;;5056960;28;20226;-50
2022/03/23 06:08:49;;;;;;;62.70;35.87;;;;;;;;;;5074250;28;20266;-48
2022/03/23 06:11:16;;;;;;;55.10;34.33;;;;;;;;;;5073866;28;20360;-50
2022/03/23 06:13:44;;;;;;;63.43;36.37;;;;;;;;;;5074244;28;20318;-51
2022/03/23 06:16:11;;;;;;;59.00;35.08;;;;;;;;;;5074682;28;20282;-49
2022/03/23 06:18:38;;;;;;;62.83;35.10;;;;;;;;;;5074877;28;20210;-49
2022/03/23 06:21:06;;;;;;;59.03;35.17;;;;;;;;;;5074936;28;20568;-52
2022/03/23 06:23:33;;;;;;;76.78;38.88;;;;;;;;;;5074983;28;20618;-50
2022/03/23 06:26:01;;;;;;;123.73;69.17;;;;;;;;;;5075157;28;20231;-49
2022/03/23 06:28:28;;;;;;;168.25;60.05;;;;;;;;;;5074722;28;20211;-50
2022/03/23 06:30:58;;;;;;;104.10;41.67;;;;;;;;;;5074530;28;20689;-49
2022/03/23 06:33:26;;;;;;;70.60;35.60;;;;;;;;;;5074549;28;20199;-49
2022/03/23 06:35:53;;;;;;;65.03;35.20;;;;;;;;;;5074525;28;20729;-49
2022/03/23 06:38:21;;;;;;;58.92;34.50;;;;;;;;;;5074837;28;20568;-48
2022/03/23 06:40:48;;;;;;;85.77;48.23;;;;;;;;;;5074955;28;20334;-48
2022/03/23 06:43:15;;;;;;;100.43;56.93;;;;;;;;;;5074761;28;20218;-49
2022/03/23 06:45:43;;;;;;;92.17;47.03;;;;;;;;;;5074690;28;20226;-48
2022/03/23 06:48:10;;;;;;;95.37;44.63;;;;;;;;;;5074559;28;20203;-52
2022/03/23 06:50:38;;;;;;;87.60;42.30;;;;;;;;;;5074655;28;20282;-51
2022/03/23 06:53:05;;;;;;;80.23;39.97;;;;;;;;;;5074308;28;20229;-51
2022/03/23 06:55:32;;;;;;;84.20;42.60;;;;;;;;;;5074357;28;20203;-48
2022/03/23 06:57:59;;;;;;;75.60;39.08;;;;;;;;;;5074492;28;20203;-49
2022/03/23 07:00:26;;;;;;;80.90;41.97;;;;;;;;;;5074229;28;20286;-49
2022/03/23 07:02:54;;;;;;;88.77;42.87;;;;;;;;;;5074311;28;20214;-49
2022/03/23 07:05:21;;;;;;;85.80;48.23;;;;;;;;;;5075057;28;20223;-48
2022/03/23 07:10:34;;;;;;;64.22;35.42;;;;;;;;;;5074284;28;20698;-48
2022/03/23 07:13:01;;;;;;;58.67;35.40;;;;;;;;;;5057006;28;20281;-49
2022/03/23 07:15:29;;;;;;;55.92;34.53;;;;;;;;;;5074513;28;20241;-50
2022/03/23 07:17:56;;;;;;;64.90;36.55;;;;;;;;;;5078150;28;20531;-48
2022/03/23 07:20:24;;;;;;;61.15;37.63;;;;;;;;;;5078130;28;20282;-51
2022/03/23 07:22:51;;;;;;;51.88;32.03;;;;;;;;;;5078228;28;20275;-49
2022/03/23 07:25:18;;;;;;;52.47;33.33;;;;;;;;;;5077899;28;20234;-51
2022/03/23 07:27:45;;;;;;;63.60;34.55;;;;;;;;;;5078079;28;20302;-51
2022/03/23 07:30:12;;;;;;;52.38;31.33;;;;;;;;;;5078389;28;20269;-50
2022/03/23 07:32:39;;;;;;;51.75;29.55;;;;;;;;;;5077910;28;20368;-49
2022/03/23 07:35:07;;;;;;;53.72;28.45;;;;;;;;;;5078253;28;20203;-48
2022/03/23 07:37:35;;;;;;;45.60;26.85;;;;;;;;;;5077878;28;20345;-50
2022/03/23 07:40:03;;;;;;;43.75;26.10;;;;;;;;;;5077748;28;20204;-52
2022/03/23 07:42:31;;;;;;;45.83;25.08;;;;;;;;;;5077483;28;20282;-49
2022/03/23 07:44:58;;;;;;;44.22;26.23;;;;;;;;;;5077749;28;20214;-49
2022/03/23 07:47:25;;;;;;;44.92;24.83;;;;;;;;;;5077863;28;20290;-49
2022/03/23 07:49:52;;;;;;;43.28;22.35;;;;;;;;;;5077601;28;20208;-49
2022/03/23 07:52:20;;;;;;;40.10;20.83;;;;;;;;;;5077486;28;20732;-48
2022/03/23 07:54:47;;;;;;;41.50;20.90;;;;;;;;;;5077228;28;20199;-49
2022/03/23 07:57:14;;;;;;;33.95;19.95;;;;;;;;;;5077526;28;20222;-48
2022/03/23 07:59:41;;;;;;;30.98;16.88;;;;;;;;;;5078050;28;20200;-49
2022/03/23 08:02:09;;;;;;;32.20;17.83;;;;;;;;;;5077419;28;20286;-48
2022/03/23 08:04:37;;;;;;;97.10;54.25;;;;;;;;;;5077443;28;20245;-50
2022/03/23 08:07:04;;;;;;;56.63;34.63;;;;;;;;;;5077374;28;20250;-48
2022/03/23 08:09:31;;;;;;;50.20;23.23;;;;;;;;;;5077136;28;20229;-48
2022/03/23 08:11:59;;;;;;;35.40;18.63;;;;;;;;;;5077247;28;20326;-49
2022/03/23 08:14:26;;;;;;;44.88;22.20;;;;;;;;;;5077343;28;20210;-49
2022/03/23 08:16:54;;;;;;;37.38;20.27;;;;;;;;;;5077431;28;20287;-49
2022/03/23 08:19:23;;;;;;;39.03;21.15;;;;;;;;;;5077044;28;20195;-49
2022/03/23 08:21:51;;;;;;;39.95;22.23;;;;;;;;;;5076776;28;20293;-48
2022/03/23 08:24:19;;;;;;;40.55;22.65;;;;;;;;;;5076800;28;20203;-49
2022/03/23 08:26:47;;;;;;;50.97;28.42;;;;;;;;;;5076782;28;20624;-49
2022/03/23 08:29:14;;;;;;;56.28;29.88;;;;;;;;;;5076477;28;20207;-48
2022/03/23 08:31:42;;;;;;;52.90;27.67;;;;;;;;;;5076801;28;20313;-49
2022/03/23 08:34:09;;;;;;;67.47;30.40;;;;;;;;;;5076789;28;20261;-48
2022/03/23 08:36:38;;;;;;;58.42;29.17;;;;;;;;;;5076425;28;20219;-48
2022/03/23 08:39:05;;;;;;;50.60;29.38;;;;;;;;;;5076938;28;20591;-49
2022/03/23 08:41:34;;;;;;;58.20;29.73;;;;;;;;;;5076512;28;20307;-48
2022/03/23 08:44:01;;;;;;;52.83;28.42;;;;;;;;;;5076821;28;20269;-50
2022/03/23 08:46:28;;;;;;;45.95;27.77;;;;;;;;;;5076321;28;20283;-49
2022/03/23 08:48:56;;;;;;;308.45;201.90;;;;;;;;;;5076485;28;20199;-48
2022/03/23 08:51:23;;;;;;;111.68;60.63;;;;;;;;;;5076149;28;20246;-48
2022/03/23 08:53:50;;;;;;;69.85;33.17;;;;;;;;;;5076430;28;20199;-48
2022/03/23 08:56:18;;;;;;;53.83;29.73;;;;;;;;;;5076268;28;20203;-48
2022/03/23 08:58:48;;;;;;;49.72;29.00;;;;;;;;;;5076158;28;20203;-49
2022/03/23 09:01:16;;;;;;;47.03;28.02;;;;;;;;;;5076322;28;20183;-49
2022/03/23 09:03:45;;;;;;;44.97;24.80;;;;;;;;;;5076010;28;20237;-50
2022/03/23 09:06:12;;;;;;;51.35;27.23;;;;;;;;;;5076196;28;20368;-50
2022/03/23 09:08:39;;;;;;;42.35;23.20;;;;;;;;;;5075965;28;20256;-50
2022/03/23 09:11:07;;;;;;;40.28;24.25;;;;;;;;;;5075878;28;20674;-53
2022/03/23 09:13:34;;;;;;;45.38;21.17;;;;;;;;;;5075895;28;20226;-50
2022/03/23 09:16:02;;;;;;;60.10;26.23;;;;;;;;;;5075786;28;20594;-52
2022/03/23 09:18:29;;;;;;;40.97;21.60;;;;;;;;;;5076257;28;20268;-54
2022/03/23 09:20:57;;;;;;;36.83;19.98;;;;;;;;;;5075874;28;20587;-48
2022/03/23 09:23:30;;;;;;;36.15;20.48;;;;;;;;;;5075913;28;20203;-49
2022/03/23 09:26:00;;;;;;;34.22;19.90;;;;;;;;;;5075504;28;20326;-48
2022/03/23 09:28:27;;;;;;;37.45;20.38;;;;;;;;;;5075458;28;20199;-49
2022/03/23 09:30:55;;;;;;;44.38;22.27;;;;;;;;;;5075381;28;20599;-49
2022/03/23 09:33:22;;;;;;;85.10;43.25;;;;;;;;;;5075443;28;20251;-49
2022/03/23 09:35:49;;;;;;;62.75;30.80;;;;;;;;;;5075299;28;20294;-49
2022/03/23 09:38:16;;;;;;;32.78;19.05;;;;;;;;;;5075465;28;20199;-49
2022/03/23 09:40:46;;;;;;;35.17;19.30;;;;;;;;;;5074423;28;20355;-50
2022/03/23 09:43:14;;;;;;;37.58;20.02;;;;;;;;;;5075429;28;20203;-49
2022/03/23 09:48:16;;;;;;;23.60;14.23;;;;;;;;;;5075206;28;20199;-48
2022/03/23 09:50:46;;;;;;;21.13;13.77;;;;;;;;;;5075652;28;20302;-50
2022/03/23 09:53:13;;;;;;;37.78;17.30;;;;;;;;;;5075264;28;20313;-49
2022/03/23 09:55:43;;;;;;;70.63;40.08;;;;;;;;;;5075507;28;20595;-49
2022/03/23 09:58:10;;;;;;;36.90;17.38;;;;;;;;;;5057687;28;20245;-49
2022/03/23 10:00:39;;;;;;;49.72;21.95;;;;;;;;;;5075277;28;20215;-49
2022/03/23 10:03:06;;;;;;;31.60;18.40;;;;;;;;;;5074911;28;20264;-49
2022/03/23 10:06:11;;;;;;;27.83;16.83;;;;;;;;;;5075182;28;20215;-48
2022/03/23 10:09:15;;;;;;;28.95;16.90;;;;;;;;;;5074923;28;20227;-50
2022/03/23 10:12:33;;;;;;;31.25;17.75;;;;;;;;;;5075106;28;20253;-49
2022/03/23 10:15:37;;;;;;;28.38;16.95;;;;;;;;;;5074852;28;20286;-49
2022/03/23 10:18:41;;;;;;;40.45;21.45;;;;;;;;;;5074707;28;20268;-49
2022/03/23 10:21:09;;;;;;;55.13;22.13;;;;;;;;;;5074962;28;20588;-49
2022/03/23 10:23:36;;;;;;;44.80;19.92;;;;;;;;;;5074657;28;20230;-49
2022/03/23 10:26:14;;;;;;;30.52;16.27;;;;;;;;;;5074726;28;20278;-49
2022/03/23 10:28:41;;;;;;;27.58;13.80;;;;;;;;;;5074911;28;20204;-49
2022/03/23 10:31:16;;;;;;;24.73;13.68;;;;;;;;;;5074895;28;20318;-48
2022/03/23 10:33:44;;;;;;;39.65;19.83;;;;;;;;;;5074447;28;20215;-49
2022/03/23 10:36:12;;;;;;;32.45;17.65;;;;;;;;;;5074771;28;20352;-49
2022/03/23 10:38:40;;;;;;;235.70;135.30;;;;;;;;;;5074630;28;20235;-49
2022/03/23 10:41:11;;;;;;;130.20;38.63;;;;;;;;;;5074511;28;20226;-49
2022/03/23 10:43:39;;;;;;;28.25;15.85;;;;;;;;;;5074652;28;20211;-49
2022/03/23 10:46:09;;;;;;;26.52;13.75;;;;;;;;;;5074839;28;20279;-50
2022/03/23 10:48:37;;;;;;;17.42;11.80;;;;;;;;;;5074448;28;20210;-50
2022/03/23 10:51:04;;;;;;;20.00;12.05;;;;;;;;;;5058221;28;20229;-49
2022/03/23 10:53:37;;;;;;;26.42;13.75;;;;;;;;;;5079014;28;20306;-49
2022/03/23 10:56:05;;;;;;;30.50;15.05;;;;;;;;;;5078792;28;20226;-50
2022/03/23 10:58:34;;;;;;;23.80;14.05;;;;;;;;;;5061452;28;20280;-51
2022/03/23 11:01:07;;;;;;;86.85;35.03;;;;;;;;;;5078595;28;20597;-49
2022/03/23 11:03:41;;;;;;;39.40;15.93;;;;;;;;;;5078843;28;20262;-49
2022/03/23 11:06:13;;;;;;;24.48;13.57;;;;;;;;;;5078535;28;20248;-49
2022/03/23 11:08:42;;;;;;;19.63;12.50;;;;;;;;;;5078449;28;20646;-51
2022/03/23 11:16:51;;;;;;;20.13;11.15;;;;;;;;;;5078068;28;20238;-51
2022/03/23 11:19:20;;;;;;;306.77;141.07;;;;;;;;;;5078495;28;20199;-50
2022/03/23 11:22:04;;;;;;;50.40;28.05;;;;;;;;;;5078206;28;20225;-50
2022/03/23 11:24:40;;;;;;;25.13;12.07;;;;;;;;;;5078228;28;20203;-49
2022/03/23 11:27:10;;;;;;;17.50;9.57;;;;;;;;;;5077955;28;20287;-49
2022/03/23 11:29:39;;;;;;;13.70;8.40;;;;;;;;;;5077963;28;20203;-49
2022/03/23 11:32:10;;;;;;;22.80;11.32;;;;;;;;;;5077960;28;20208;-49
2022/03/23 11:34:38;;;;;;;19.33;11.50;;;;;;;;;;5077773;28;20287;-49
2022/03/23 11:37:07;;;;;;;19.00;10.27;;;;;;;;;;5077813;28;20238;-49
2022/03/23 11:39:37;;;;;;;27.80;11.40;;;;;;;;;;5077846;28;20227;-49
2022/03/23 11:42:05;;;;;;;57.05;35.70;;;;;;;;;;5077585;28;20604;-49
2022/03/23 11:44:32;;;;;;;65.60;19.83;;;;;;;;;;5077587;28;20286;-51
2022/03/23 11:47:05;;;;;;;15.18;9.77;;;;;;;;;;5077464;28;20243;-51
2022/03/23 11:49:41;;;;;;;13.50;9.10;;;;;;;;;;5077647;28;20200;-50
2022/03/23 11:52:27;;;;;;;19.13;9.90;;;;;;;;;;5060546;28;20286;-49
2022/03/23 11:58:15;;;;;;;17.83;9.85;;;;;;;;;;5077309;28;20218;-52
2022/03/23 12:00:45;;;;;;;18.52;10.60;;;;;;;;;;5077381;28;20214;-50
2022/03/23 12:03:13;;;;;;;18.17;10.75;;;;;;;;;;5076239;28;20310;-49
2022/03/23 12:05:51;;;;;;;16.83;9.75;;;;;;;;;;5077965;28;20573;-51
2022/03/23 12:08:47;;;;;;;23.50;10.70;;;;;;;;;;5077493;28;20203;-49
2022/03/23 12:11:42;;;;;;;31.63;14.05;;;;;;;;;;5077200;28;20307;-49
2022/03/23 12:14:23;;;;;;;20.88;11.52;;;;;;;;;;5077534;28;20231;-50
2022/03/23 12:16:50;;;;;;;25.42;12.30;;;;;;;;;;5077155;28;20203;-49
2022/03/23 12:19:59;;;;;;;25.88;11.80;;;;;;;;;;5077003;28;20282;-49
2022/03/23 12:22:52;;;;;;;24.65;11.65;;;;;;;;;;5077344;28;20199;-49
2022/03/23 12:25:26;;;;;;;156.15;88.80;;;;;;;;;;5077045;28;20583;-51
2022/03/23 12:28:31;;;;;;;21.23;10.57;;;;;;;;;;5077013;28;20673;-49
2022/03/23 12:31:07;;;;;;;22.75;11.23;;;;;;;;;;5076882;28;20199;-49
2022/03/23 12:33:56;;;;;;;26.65;13.18;;;;;;;;;;5076502;28;20233;-49
2022/03/23 12:39:24;;;;;;;21.80;11.48;;;;;;;;;;5076841;28;20219;-50
2022/03/23 12:41:52;;;;;;;23.15;11.40;;;;;;;;;;5076543;28;20188;-50
2022/03/23 12:44:30;;;;;;;14.07;8.65;;;;;;;;;;5076691;28;20222;-49
2022/03/23 12:47:05;;;;;;;38.80;22.13;;;;;;;;;;5076826;28;20293;-49
2022/03/23 12:58:13;;;;;;;24.90;11.45;;;;;;;;;;5076861;28;20282;-50
2022/03/23 13:00:42;;;;;;;19.52;10.77;;;;;;;;;;5076158;28;20551;-51
2022/03/23 13:03:18;;;;;;;41.33;15.45;;;;;;;;;;5076266;28;20282;-54
2022/03/23 13:05:58;;;;;;;16.33;8.93;;;;;;;;;;5076903;28;20191;-51
2022/03/23 13:08:38;;;;;;;34.10;14.25;;;;;;;;;;5076678;28;20286;-49
2022/03/23 13:11:06;;;;;;;34.65;13.00;;;;;;;;;;5076205;28;20199;-51
2022/03/23 13:13:38;;;;;;;24.52;10.52;;;;;;;;;;5058603;28;20317;-50
2022/03/23 13:16:13;;;;;;;31.85;13.43;;;;;;;;;;5076193;28;20203;-50
2022/03/23 13:18:41;;;;;;;22.83;12.13;;;;;;;;;;5068863;28;20299;-52
2022/03/23 13:21:12;;;;;;;27.20;12.25;;;;;;;;;;5074273;28;20258;-56
2022/03/23 13:23:41;;;;;;;32.40;13.32;;;;;;;;;;5074237;28;20230;-54
2022/03/23 13:26:14;;;;;;;24.25;11.77;;;;;;;;;;5070078;28;20293;-53
2022/03/23 13:28:50;;;;;;;84.78;34.95;;;;;;;;;;5061793;28;20215;-53
2022/03/23 13:31:22;;;;;;;42.60;14.93;;;;;;;;;;5074598;28;20250;-54
2022/03/23 13:33:51;;;;;;;35.13;14.00;;;;;;;;;;5072905;28;20223;-53
2022/03/23 13:36:23;;;;;;;28.00;12.15;;;;;;;;;;5074926;28;20257;-48
2022/03/23 13:38:56;;;;;;;14.93;8.93;;;;;;;;;;5075420;28;20199;-51
2022/03/23 13:44:16;;;;;;;26.77;13.70;;;;;;;;;;5075161;28;20645;-53
2022/03/23 13:46:44;;;;;;;39.88;15.90;;;;;;;;;;5074968;28;20221;-51
2022/03/23 13:49:13;;;;;;;315.77;170.57;;;;;;;;;;5072244;28;20660;-53
2022/03/23 13:51:45;;;;;;;42.22;18.55;;;;;;;;;;5062565;28;20214;-51
2022/03/23 13:54:20;;;;;;;35.25;15.00;;;;;;;;;;5059121;28;20337;-51
2022/03/23 13:56:49;;;;;;;17.75;10.27;;;;;;;;;;5072237;28;20238;-53
2022/03/23 13:59:17;;;;;;;15.07;8.43;;;;;;;;;;5074233;28;20219;-54
2022/03/23 14:01:47;;;;;;;13.65;8.55;;;;;;;;;;5073635;28;20230;-54
2022/03/23 14:04:16;;;;;;;19.33;10.00;;;;;;;;;;5073970;28;20239;-56
2022/03/23 14:06:44;;;;;;;15.75;9.45;;;;;;;;;;5073503;28;20590;-52
2022/03/23 14:09:13;;;;;;;16.38;9.23;;;;;;;;;;5073921;28;20353;-53
2022/03/23 14:11:47;;;;;;;29.20;16.45;;;;;;;;;;5073592;28;20231;-53
2022/03/23 14:14:17;;;;;;;14.02;8.32;;;;;;;;;;5073941;28;20317;-54
2022/03/23 14:17:03;;;;;;;22.05;9.48;;;;;;;;;;5056451;28;20677;-54
2022/03/23 14:19:33;;;;;;;18.27;10.05;;;;;;;;;;5074271;28;20671;-52
2022/03/23 14:22:03;;;;;;;15.55;8.38;;;;;;;;;;5073763;28;20227;-54
2022/03/23 14:24:33;;;;;;;21.63;10.25;;;;;;;;;;5073396;28;20235;-55
2022/03/23 14:27:23;;;;;;;25.30;10.82;;;;;;;;;;5073403;28;20532;-54
2022/03/23 14:30:11;;;;;;;14.35;7.72;;;;;;;;;;5073606;28;20285;-53
2022/03/23 14:32:39;;;;;;;12.68;8.02;;;;;;;;;;5073875;28;20310;-53
2022/03/23 14:35:11;;;;;;;16.63;9.23;;;;;;;;;;5075896;28;20243;-50
2022/03/23 14:37:49;;;;;;;15.40;9.45;;;;;;;;;;5086242;28;20215;-51
2022/03/23 14:40:20;;;;;;;14.90;9.52;;;;;;;;;;5072813;28;20255;-51
2022/03/23 14:42:48;;;;;;;15.02;9.93;;;;;;;;;;5074024;28;20224;-52
2022/03/23 14:45:31;;;;;;;15.85;9.98;;;;;;;;;;5073597;28;20300;-53
2022/03/23 14:48:16;;;;;;;21.05;11.73;;;;;;;;;;5073947;28;20226;-50
2022/03/23 14:50:48;;;;;;;358.85;173.82;;;;;;;;;;5073426;28;20234;-50
2022/03/23 14:53:17;;;;;;;158.82;94.07;;;;;;;;;;5073940;28;20314;-49
2022/03/23 14:55:44;;;;;;;31.15;16.08;;;;;;;;;;5072657;28;20714;-50
2022/03/23 14:58:34;;;;;;;48.03;26.63;;;;;;;;;;5073826;28;20235;-50
2022/03/23 15:01:05;;;;;;;29.50;14.13;;;;;;;;;;5073975;28;20318;-49
2022/03/23 15:03:35;;;;;;;38.30;19.38;;;;;;;;;;5073700;28;20239;-49
2022/03/23 15:14:23;;;;;;;16.02;10.80;;;;;;;;;;5073570;28;20289;-54
2022/03/23 15:16:50;;;;;;;20.65;10.48;;;;;;;;;;5073541;28;20273;-54